This is the latest recevied weather packets stored in our database for station/object E23JWE-1. If no packets are shown the sender has not sent any weather packets the latest 10 day(s).
| Time | Temp. | Humidity | Pressure | Rain* | Wind** | Luminosity | Snow |
|---|---|---|---|---|---|---|---|
| 1777812880 | 32.78° C | 91% | 1008 hPa | - | - | 0 W/m² | - |
| 1777811055 | 32.22° C | 91% | 1007 hPa | - | - | 0 W/m² | - |
| 1777809229 | 32.22° C | 89% | 1007 hPa | - | - | 0 W/m² | - |
| 1777807404 | 32.78° C | 87% | 1006 hPa | - | - | 5 W/m² | - |
| 1777805578 | 32.78° C | 84% | 1006 hPa | - | - | 20 W/m² | - |
| 1777803752 | 33.89° C | 78% | 1006 hPa | - | - | 41 W/m² | - |
| 1777801927 | 33.33° C | 82% | 1005 hPa | - | - | 47 W/m² | - |
| 1777800101 | 32.78° C | 85% | 1006 hPa | - | - | 44 W/m² | - |
| 1777798275 | 32.78° C | 87% | 1006 hPa | - | - | 41 W/m² | - |
| 1777796450 | 31.67° C | 93% | 1006 hPa | - | - | 34 W/m² | - |
| 1777794624 | 32.22° C | 88% | 1006 hPa | - | - | 36 W/m² | - |
| 1777792799 | 32.22° C | 86% | 1007 hPa | - | - | 34 W/m² | - |
| 1777790973 | 32.78° C | 86% | 1008 hPa | - | - | 34 W/m² | - |
| 1777789148 | 32.78° C | 87% | 1008 hPa | - | - | 37 W/m² | - |
| 1777787322 | 32.78° C | 87% | 1009 hPa | - | - | 25 W/m² | - |
| 1777785496 | 32.78° C | 85% | 1009 hPa | - | - | 28 W/m² | - |
| 1777783671 | 32.78° C | 85% | 1010 hPa | - | - | 26 W/m² | - |
| 1777781845 | 32.22° C | 81% | 1010 hPa | - | - | 30 W/m² | - |
| 1777780019 | 32.22° C | 82% | 1010 hPa | - | - | 26 W/m² | - |
| 1777778194 | 32.22° C | 83% | 1010 hPa | - | - | 25 W/m² | - |
| 1777776368 | 32.22° C | 86% | 1010 hPa | - | - | 35 W/m² | - |
| 1777774542 | 31.67° C | 89% | 1011 hPa | - | - | 29 W/m² | - |
| 1777772716 | 31.11° C | 92% | 1010 hPa | - | - | 30 W/m² | - |
| 1777770891 | 31.11° C | 93% | 1010 hPa | - | - | 29 W/m² | - |
| 1777769065 | 30.56° C | 94% | 1009 hPa | - | - | 21 W/m² | - |
* Rain since midnight (hover to see other rain measurements)
** Current wind speed in m/s (hover to see current wind gust speed)